Connecticut River @ Holyoke, Ma

Connecticut River at Holyoke
 Total Drainage Area: 8,309 sq. miles 
 Drainage Area Controlled by Corps Dams: 1,154 sq. miles (14%) 
 Warning Flow/Stage: 73,900 cfs / 22.0 feet 
 Flood Flow/Stage: 100,643 cfs / 26.5 feet 
Date Time
(Eastern)
Stage
(ft)
Flow
(cfs)
CSM
(cfs / sq. mi.)
Jun-25 12:30 am 9.59 16,205 2.0
Jun-24 11:30 pm 9.55 16,089 1.9
Jun-24 10:30 pm 9.07 14,709 1.8
Jun-24 09:30 pm 8.98 14,452 1.7
Jun-24 08:30 pm 8.88 14,168 1.7
Jun-24 07:30 pm 8.79 13,913 1.7
Jun-24 06:30 pm 8.69 13,615 1.6
Jun-24 05:30 pm 8.59 13,297 1.6
Jun-24 04:30 pm 8.51 13,043 1.6
Jun-24 03:30 pm 8.43 12,791 1.5
Jun-24 02:30 pm 8.34 12,508 1.5
Jun-24 01:30 pm 8.27 12,290 1.5
Jun-24 12:30 pm 8.19 12,042 1.5
Jun-24 11:30 am 8.14 11,887 1.4
Jun-24 10:30 am 8.13 11,856 1.4
Jun-24 09:30 am 8.08 11,702 1.4
Jun-24 08:30 am 8.03 11,548 1.4
Jun-24 07:30 am 7.93 11,243 1.4
Jun-24 06:30 am 7.89 11,121 1.3
Jun-24 05:30 am 7.75 10,698 1.3
Jun-24 04:30 am 7.68 10,497 1.3
Jun-24 03:30 am 7.62 10,324 1.2
Jun-24 02:30 am 7.55 10,124 1.2
Jun-24 01:30 am 7.40 9,698 1.2
Jun-24 12:30 am 7.30 9,417 1.1
Report Generated June 25, 2024 01:05 am